Flight Track Log - Related Links

Times and Time Zones

All times are in EDT time to prevent confusion due to time zone crossing. See the N319EE flight status page for this flight to view local times or setup timezone preferences in your user account.

Time Position Orientation Groundspeed Altitude Reporting Facility
EDT Latitude Longitude Course Direction KTS MPH feet Rate Location/Type
Thu 12:32:39 PM 42.2539 -75.9956 306° West 214 246 5,000  Level New York Center
Thu 12:33:39 PM 42.2847 -76.0542 305° West 198 228 7,200 2,100 Climbing New York Center
Thu 12:34:39 PM 42.3194 -76.1131 309° West 192 221 9,200 1,400 Climbing New York Center
Thu 12:35:39 PM 42.3519 -76.1803 303° West 192 221 10,000 400 Climbing New York Center
Thu 12:36:39 PM 42.3939 -76.2622 305° West 224 258 10,000  Level New York Center
Thu 12:37:00 PM 42.4066 -76.3441 306° West  Level FlightAware Approximate
Thu 12:37:39 PM 42.4419 -76.3478 307° West 265 305 10,000  Level New York Center
Thu 12:38:39 PM 42.4858 -76.4331 305° West 283 326 10,000  Level New York Center
Thu 12:39:39 PM 42.5317 -76.5186 306° West 283 326 10,000  Level New York Center
Thu 12:40:39 PM 42.5753 -76.6042 305° West 283 326 10,000  Level New York Center
Thu 12:42:34 PM 42.6514 -76.7506 305° West 274 315 10,000 -68 Level Cleveland Center
Thu 12:43:36 PM 42.7047 -76.8536 305° West 278 320 9,800 -545 Descending Cleveland Center
Thu 12:44:24 PM 42.7408 -76.9203 306° West 282 325 9,000 -968 Descending Cleveland Center
Thu 12:44:38 PM 42.7514 -76.9411 305° West 283 326 8,800 -885 Descending Cleveland Center
Thu 12:45:25 PM 42.7903 -77.0075 309° West 291 335 8,100 -968 Descending Cleveland Center
Thu 12:45:40 PM 42.8011 -77.0269 307° West 289 333 7,800 -1,075 Descending Cleveland Center
Thu 12:46:32 PM 42.8403 -77.0922 309° West 290 334 6,900 -1,065 Descending Cleveland Center
Thu 12:46:42 PM 42.8492 -77.1106 303° West 284 327 6,700 -1,100 Descending Cleveland Center
Thu 12:47:32 PM 42.8878 -77.1764 309° West 282 325 5,800 -1,065 Descending Cleveland Center
Thu 12:47:44 PM 42.8958 -77.1947 301° West 281 323 5,600 -1,279 Descending Cleveland Center
Thu 12:48:33 PM 42.9439 -77.2775 308° West 282 325 4,500 -1,161 Descending Cleveland Center
Thu 12:48:46 PM 42.9531 -77.2953 305° West 282 325 4,400 -600 Descending Cleveland Center
Thu 12:49:33 PM 42.9914 -77.3619 308° West 282 325 3,900 -581 Descending Cleveland Center
Thu 12:49:48 PM 43.0003 -77.3783 307° West 280 322 3,800 -590 Descending Cleveland Center
Thu 12:50:34 PM 43.0372 -77.4433 308° West 275 316 3,300 -581 Descending Cleveland Center
Thu 12:50:50 PM 43.0456 -77.4592 306° West 274 315 3,200 -885 Descending Cleveland Center
Thu 12:51:35 PM 43.0836 -77.5219 310° West 270 311 2,400 -1,048 Descending Cleveland Center
Thu 12:51:53 PM 43.0914 -77.5386 303° West 269 310 2,100 -600 Descending Cleveland Center
Thu 12:52:35 PM 43.1244 -77.5936 309° West 253 291 1,800 -581 Descending Cleveland Center
Thu 12:52:55 PM 43.1269 -77.6036 289° West 231 266 1,500 -984 Descending Cleveland Center
Thu 12:53:36 PM 43.1253 -77.6461 267° West 147 169 800 -871 Descending Cleveland Center
Thu 12:53:57 PM 43.1217 -77.6558 243° Southwest 171 197 600 -571 Descending Cleveland Center

Login

Don't have an account? Register now (free) for customized features, flight alerts, and more!